Time;durP1;ratioP1;P1;durP2;ratioP2;P2;SDS_P1;SDS_P2;PMS_P1;PMS_P2;Temp;Humidity;BMP_temperature;BMP_pressure;BME280_temperature;BME280_humidity;BME280_pressure;Samples;Min_cycle;Max_cycle;Signal;HPM_P1;HPM_P2
2023/11/16 00:00:14;;;;;;;0.10;0.10;;;8.20;99.90;;;;;;5048209;28;20049;-76
2023/11/16 00:02:42;;;;;;;0.10;0.10;;;8.20;99.90;;;;;;5045314;28;20055;-75
2023/11/16 00:05:12;;;;;;;0.10;0.10;;;8.40;99.90;;;;;;5046085;28;20032;-75
2023/11/16 00:07:41;;;;;;;0.10;0.10;;;8.30;99.90;;;;;;5048514;28;20501;-75
2023/11/16 00:10:10;;;;;;;0.00;0.00;;;8.40;99.90;;;;;;5050943;28;20028;-74
2023/11/16 00:12:35;;;;;;;0.10;0.10;;;8.40;99.90;;;;;;5045887;28;20752;-74
2023/11/16 00:15:02;;;;;;;0.10;0.10;;;8.40;99.90;;;;;;5046168;28;20033;-74
2023/11/16 00:17:28;;;;;;;0.00;0.00;;;8.30;99.90;;;;;;5049079;28;20036;-75
2023/11/16 00:19:55;;;;;;;0.10;0.10;;;8.30;99.90;;;;;;5047187;28;20084;-75
2023/11/16 00:22:20;;;;;;;0.50;0.50;;;8.30;99.90;;;;;;5046652;28;20126;-75
2023/11/16 00:24:46;;;;;;;0.10;0.10;;;8.30;99.90;;;;;;5047672;28;20041;-75
2023/11/16 00:27:12;;;;;;;0.10;0.10;;;8.30;99.90;;;;;;5047120;28;20025;-75
2023/11/16 00:29:39;;;;;;;0.03;0.03;;;8.30;99.90;;;;;;5051149;28;20147;-74
2023/11/16 00:32:05;;;;;;;0.10;0.10;;;8.30;99.90;;;;;;5048726;28;20767;-75
2023/11/16 00:34:30;;;;;;;0.00;0.00;;;8.20;99.90;;;;;;5048586;28;20032;-75
2023/11/16 00:36:56;;;;;;;0.00;0.00;;;8.20;99.90;;;;;;5046459;28;20056;-75
2023/11/16 00:39:22;;;;;;;0.10;0.10;;;8.20;99.90;;;;;;5050963;28;20029;-74
2023/11/16 00:41:48;;;;;;;0.10;0.10;;;8.20;99.90;;;;;;5050926;28;20075;-74
2023/11/16 00:44:14;;;;;;;0.10;0.10;;;8.20;99.90;;;;;;5042609;28;20033;-74
2023/11/16 00:46:43;;;;;;;0.08;0.08;;;8.20;99.90;;;;;;5049807;28;20525;-74
2023/11/16 00:49:09;;;;;;;0.10;0.10;;;8.10;99.90;;;;;;5052927;28;20062;-74
2023/11/16 00:51:34;;;;;;;0.10;0.10;;;8.00;99.90;;;;;;5057442;28;20776;-74
2023/11/16 00:54:01;;;;;;;0.10;0.10;;;8.10;99.90;;;;;;5050316;28;20506;-74
2023/11/16 00:56:27;;;;;;;;;;;8.00;99.90;;;;;;5050866;28;20098;-74
2023/11/16 00:58:55;;;;;;;0.10;0.10;;;8.00;99.90;;;;;;5056597;28;19924;-74
2023/11/16 01:01:22;;;;;;;0.10;0.10;;;8.00;99.90;;;;;;5049284;28;20055;-74
2023/11/16 01:03:49;;;;;;;0.38;0.38;;;8.00;99.90;;;;;;5049332;28;20033;-74
2023/11/16 01:06:15;;;;;;;0.17;0.17;;;8.00;99.90;;;;;;5053856;28;20078;-74
2023/11/16 01:08:41;;;;;;;2.40;2.23;;;8.00;99.90;;;;;;5053755;28;20080;-75
2023/11/16 01:11:08;;;;;;;0.00;0.00;;;8.10;99.90;;;;;;5051868;28;20060;-75
2023/11/16 01:13:41;;;;;;;0.08;0.08;;;8.10;99.90;;;;;;5043021;28;20148;-75
2023/11/16 01:16:14;;;;;;;0.68;0.68;;;8.10;99.90;;;;;;5057399;28;20055;-75
2023/11/16 01:18:50;;;;;;;0.10;0.10;;;8.10;99.90;;;;;;5048391;28;20143;-75
2023/11/16 01:21:19;;;;;;;0.17;0.17;;;8.10;99.90;;;;;;5046293;28;20102;-75
2023/11/16 01:23:47;;;;;;;0.10;0.10;;;8.20;99.90;;;;;;5050796;28;20040;-75
2023/11/16 01:26:15;;;;;;;0.10;0.10;;;8.20;99.90;;;;;;5046690;28;20025;-75
2023/11/16 01:28:47;;;;;;;0.03;0.03;;;8.20;99.90;;;;;;5057269;28;20032;-75
2023/11/16 01:31:19;;;;;;;0.45;0.45;;;8.20;99.90;;;;;;5048453;28;20021;-75
2023/11/16 01:33:46;;;;;;;0.60;0.60;;;8.20;99.90;;;;;;5050143;28;20036;-74
2023/11/16 01:36:13;;;;;;;0.10;0.10;;;8.20;99.90;;;;;;5051793;28;20701;-75
2023/11/16 01:38:39;;;;;;;0.10;0.10;;;8.20;99.90;;;;;;5052967;28;20045;-74
2023/11/16 01:41:08;;;;;;;0.10;0.10;;;8.10;99.90;;;;;;5048502;28;20028;-75
2023/11/16 01:43:35;;;;;;;0.10;0.10;;;8.10;99.90;;;;;;5053812;28;20047;-75
2023/11/16 01:46:06;;;;;;;0.10;0.10;;;8.10;99.90;;;;;;5049153;28;20020;-75
2023/11/16 01:48:39;;;;;;;0.10;0.10;;;8.10;99.90;;;;;;5055810;28;20150;-75
2023/11/16 01:51:08;;;;;;;0.10;0.10;;;8.10;99.90;;;;;;5046642;28;20029;-74
2023/11/16 01:53:40;;;;;;;0.10;0.10;;;8.20;99.90;;;;;;5051827;28;20123;-74
2023/11/16 01:56:08;;;;;;;0.30;0.30;;;8.10;99.90;;;;;;5048910;28;20088;-75
2023/11/16 01:58:33;;;;;;;0.30;0.30;;;8.20;99.90;;;;;;5050145;28;20804;-75
2023/11/16 02:01:03;;;;;;;0.10;0.10;;;8.30;99.90;;;;;;5047021;28;20017;-74
2023/11/16 02:03:31;;;;;;;0.10;0.10;;;8.30;99.90;;;;;;5050245;28;20070;-75
2023/11/16 02:05:57;;;;;;;0.20;0.20;;;8.40;99.90;;;;;;5048462;28;20100;-75
2023/11/16 02:08:23;;;;;;;0.10;0.10;;;8.40;99.90;;;;;;5047541;28;20032;-75
2023/11/16 02:10:50;;;;;;;0.08;0.08;;;8.50;99.90;;;;;;5047158;28;20052;-75
2023/11/16 02:13:18;;;;;;;0.10;0.10;;;8.50;99.90;;;;;;5047182;28;20028;-75
2023/11/16 02:15:45;;;;;;;0.10;0.10;;;8.40;99.90;;;;;;5047501;28;20055;-76
2023/11/16 02:18:14;;;;;;;0.10;0.10;;;8.40;99.90;;;;;;5047423;28;20039;-76
2023/11/16 02:20:47;;;;;;;0.10;0.10;;;8.50;99.90;;;;;;5053116;28;20542;-75
2023/11/16 02:23:14;;;;;;;0.13;0.13;;;8.60;99.90;;;;;;5047756;28;20025;-76
2023/11/16 02:25:43;;;;;;;;;;;8.60;99.90;;;;;;5053033;28;20032;-75
2023/11/16 02:28:09;;;;;;;0.10;0.10;;;8.60;99.90;;;;;;5047623;28;20004;-75
2023/11/16 02:30:35;;;;;;;0.10;0.10;;;8.60;99.90;;;;;;5047801;28;20108;-75
2023/11/16 02:33:02;;;;;;;0.10;0.10;;;8.40;99.90;;;;;;5046717;28;20028;-75
2023/11/16 02:35:27;;;;;;;0.80;0.80;;;8.30;99.90;;;;;;5047528;28;20486;-75
2023/11/16 02:37:53;;;;;;;0.03;0.03;;;8.30;99.90;;;;;;5047864;28;20518;-75
2023/11/16 02:40:20;;;;;;;0.10;0.10;;;8.30;99.90;;;;;;5047942;28;20035;-75
2023/11/16 02:42:47;;;;;;;0.10;0.10;;;8.30;99.90;;;;;;5006658;28;1160143;-75
2023/11/16 02:45:13;;;;;;;0.10;0.10;;;8.40;99.90;;;;;;5047204;28;20043;-75
2023/11/16 02:47:39;;;;;;;0.10;0.10;;;8.50;99.90;;;;;;5051993;28;20025;-75
2023/11/16 02:50:05;;;;;;;0.10;0.10;;;8.60;99.90;;;;;;5048194;28;20036;-75
2023/11/16 02:52:32;;;;;;;0.38;0.38;;;8.60;99.90;;;;;;5043645;28;20292;-75
2023/11/16 02:54:59;;;;;;;;;;;8.60;99.90;;;;;;5054199;28;20909;-75
2023/11/16 02:57:25;;;;;;;;;;;8.90;99.90;;;;;;5049106;28;19916;-75
2023/11/16 02:59:50;;;;;;;0.10;0.10;;;9.00;99.90;;;;;;5046030;28;20459;-74
2023/11/16 03:02:18;;;;;;;0.00;0.00;;;9.20;99.90;;;;;;5044572;28;20037;-75
2023/11/16 03:04:47;;;;;;;0.10;0.10;;;9.30;99.90;;;;;;5047487;28;20025;-75
2023/11/16 03:07:12;;;;;;;0.05;0.05;;;9.30;99.90;;;;;;5061506;28;20602;-74
2023/11/16 03:09:38;;;;;;;0.10;0.10;;;9.40;99.90;;;;;;5051509;28;20033;-75
2023/11/16 03:12:04;;;;;;;0.10;0.10;;;9.40;99.90;;;;;;5046265;28;20121;-75
2023/11/16 03:14:30;;;;;;;0.10;0.10;;;9.50;99.90;;;;;;5047979;28;20028;-75
2023/11/16 03:16:55;;;;;;;0.10;0.10;;;9.50;99.90;;;;;;5050597;28;20013;-75
2023/11/16 03:19:22;;;;;;;0.10;0.10;;;9.50;99.90;;;;;;5048747;28;20037;-74
2023/11/16 03:21:49;;;;;;;0.13;0.13;;;9.50;99.90;;;;;;5049814;28;20060;-75
2023/11/16 03:24:14;;;;;;;;;;;9.40;99.90;;;;;;5048052;28;20025;-75
2023/11/16 03:26:40;;;;;;;0.10;0.10;;;9.40;99.90;;;;;;5047959;28;19963;-75
2023/11/16 03:29:06;;;;;;;0.10;0.10;;;9.20;99.90;;;;;;5053014;28;20126;-75
2023/11/16 03:31:35;;;;;;;0.10;0.10;;;8.90;99.90;;;;;;5050038;28;20079;-75
2023/11/16 03:34:04;;;;;;;0.10;0.10;;;8.80;99.90;;;;;;5050939;28;20025;-75
2023/11/16 03:36:29;;;;;;;0.00;0.00;;;8.70;99.90;;;;;;5047214;28;20025;-75
2023/11/16 03:38:55;;;;;;;0.10;0.10;;;8.50;99.90;;;;;;5045911;28;20625;-77
2023/11/16 03:41:21;;;;;;;0.10;0.10;;;8.50;99.90;;;;;;5046990;28;20139;-75
2023/11/16 03:43:47;;;;;;;1.50;1.40;;;8.60;99.90;;;;;;5055234;28;20042;-75
2023/11/16 03:46:12;;;;;;;0.10;0.10;;;8.60;99.90;;;;;;5047424;28;20029;-76
2023/11/16 03:48:39;;;;;;;0.10;0.10;;;8.50;99.90;;;;;;5046263;28;20107;-76
2023/11/16 03:51:06;;;;;;;0.03;0.03;;;8.70;99.90;;;;;;5045795;28;20041;-75
2023/11/16 03:53:32;;;;;;;0.00;0.00;;;8.90;99.90;;;;;;5055264;28;20032;-75
2023/11/16 03:55:59;;;;;;;0.10;0.10;;;8.90;99.90;;;;;;5047201;28;20136;-75
2023/11/16 03:58:26;;;;;;;0.00;0.00;;;9.00;99.90;;;;;;5050739;28;20514;-76
2023/11/16 04:00:52;;;;;;;0.10;0.10;;;9.20;99.90;;;;;;5045370;28;20496;-76
2023/11/16 04:03:20;;;;;;;0.10;0.10;;;9.40;99.90;;;;;;5047524;28;20091;-75
2023/11/16 04:05:46;;;;;;;0.00;0.00;;;9.40;99.90;;;;;;5059995;28;20029;-75
2023/11/16 04:08:12;;;;;;;0.10;0.10;;;9.40;99.90;;;;;;5052189;28;20032;-75
2023/11/16 04:10:37;;;;;;;0.00;0.00;;;9.20;99.90;;;;;;5045095;28;20037;-75
2023/11/16 04:13:03;;;;;;;0.00;0.00;;;9.20;99.90;;;;;;5043092;28;20033;-75
2023/11/16 04:15:29;;;;;;;0.10;0.10;;;9.30;99.90;;;;;;5046449;28;20039;-75
2023/11/16 04:17:55;;;;;;;0.10;0.10;;;9.40;99.90;;;;;;5041629;28;20033;-76
2023/11/16 04:20:23;;;;;;;0.10;0.10;;;9.40;99.90;;;;;;5051870;28;20108;-76
2023/11/16 04:22:49;;;;;;;0.10;0.10;;;9.40;99.90;;;;;;5045342;28;20029;-75
2023/11/16 04:25:28;;;;;;;0.10;0.10;;;9.30;99.90;;;;;;5047840;28;20036;-76
2023/11/16 04:28:00;;;;;;;0.10;0.10;;;9.40;99.90;;;;;;5041997;28;20037;-75
2023/11/16 04:30:34;;;;;;;0.10;0.10;;;9.50;99.90;;;;;;5053753;28;20123;-75
2023/11/16 04:33:00;;;;;;;0.10;0.10;;;9.40;99.90;;;;;;5047836;28;20705;-75
2023/11/16 04:35:27;;;;;;;0.03;0.03;;;9.50;99.90;;;;;;5048486;28;20031;-75
2023/11/16 04:37:54;;;;;;;0.10;0.10;;;9.50;99.90;;;;;;5050826;28;20264;-75
2023/11/16 04:40:20;;;;;;;0.10;0.10;;;9.50;99.90;;;;;;5044169;28;20029;-75
2023/11/16 04:42:47;;;;;;;0.10;0.10;;;9.30;99.90;;;;;;5046131;28;20211;-75
2023/11/16 04:45:14;;;;;;;0.10;0.10;;;8.60;99.90;;;;;;5048710;28;20288;-74
2023/11/16 04:47:41;;;;;;;0.10;0.10;;;8.50;99.90;;;;;;5047847;28;20049;-74
2023/11/16 04:50:07;;;;;;;;;;;8.50;99.90;;;;;;5053118;28;20032;-75
2023/11/16 04:52:34;;;;;;;0.15;0.15;;;8.60;99.90;;;;;;5047404;28;19920;-74
2023/11/16 04:55:00;;;;;;;0.10;0.10;;;8.50;99.90;;;;;;5055092;28;20036;-74
2023/11/16 04:57:26;;;;;;;0.20;0.20;;;8.60;99.90;;;;;;5046856;28;20122;-74
2023/11/16 04:59:53;;;;;;;0.10;0.10;;;8.50;99.90;;;;;;5051136;28;20511;-74
2023/11/16 05:02:19;;;;;;;0.10;0.10;;;8.50;99.90;;;;;;5038427;28;20528;-75
2023/11/16 05:04:45;;;;;;;0.10;0.10;;;8.60;99.90;;;;;;5047756;28;20037;-76
2023/11/16 05:07:14;;;;;;;0.10;0.10;;;8.70;99.90;;;;;;5041792;28;20110;-75
2023/11/16 05:09:41;;;;;;;0.10;0.10;;;8.60;99.90;;;;;;5050443;28;20283;-75
2023/11/16 05:12:08;;;;;;;13.38;5.78;;;8.60;99.90;;;;;;5039603;28;20041;-74
2023/11/16 05:14:34;;;;;;;0.10;0.10;;;8.60;99.90;;;;;;5045087;28;20029;-74
2023/11/16 05:17:00;;;;;;;0.10;0.10;;;8.80;99.90;;;;;;5044944;28;20097;-75
2023/11/16 05:19:26;;;;;;;0.10;0.10;;;8.80;99.90;;;;;;5044689;28;20029;-75
2023/11/16 05:21:51;;;;;;;0.10;0.10;;;8.90;99.90;;;;;;5045752;28;20044;-74
2023/11/16 05:24:18;;;;;;;0.10;0.10;;;8.80;99.90;;;;;;5045076;28;20121;-74
2023/11/16 05:26:44;;;;;;;0.10;0.10;;;8.90;99.90;;;;;;5046744;28;20044;-75
2023/11/16 05:29:10;;;;;;;0.10;0.10;;;8.80;99.90;;;;;;5047792;28;20063;-74
2023/11/16 05:31:36;;;;;;;0.10;0.10;;;8.90;99.90;;;;;;5049816;28;20045;-75
2023/11/16 05:34:03;;;;;;;0.10;0.10;;;8.80;99.90;;;;;;5043064;28;20026;-75
2023/11/16 05:36:30;;;;;;;0.03;0.03;;;8.80;99.90;;;;;;5047879;28;20096;-75
2023/11/16 05:38:57;;;;;;;0.10;0.10;;;8.90;99.90;;;;;;5047904;28;20033;-76
2023/11/16 05:41:23;;;;;;;0.00;0.00;;;8.90;99.90;;;;;;5040830;28;20052;-77
2023/11/16 05:43:48;;;;;;;0.10;0.10;;;8.90;99.90;;;;;;5050004;28;20037;-75
2023/11/16 05:46:15;;;;;;;0.10;0.10;;;9.00;99.90;;;;;;5047093;28;20474;-75
2023/11/16 05:48:41;;;;;;;2.00;1.35;;;9.00;99.90;;;;;;5048015;28;20033;-77
2023/11/16 05:51:06;;;;;;;0.03;0.03;;;8.90;99.90;;;;;;5044070;28;20029;-76
2023/11/16 05:53:33;;;;;;;0.00;0.00;;;8.90;99.90;;;;;;5038264;28;20028;-75
2023/11/16 05:55:59;;;;;;;0.10;0.10;;;8.80;99.90;;;;;;5049470;28;20028;-76
2023/11/16 05:58:25;;;;;;;0.10;0.10;;;8.80;99.90;;;;;;5048391;28;20671;-76
2023/11/16 06:00:51;;;;;;;0.10;0.10;;;8.80;99.90;;;;;;5048534;28;20035;-76
2023/11/16 06:03:18;;;;;;;0.10;0.10;;;8.80;99.90;;;;;;5047734;28;20044;-76
2023/11/16 06:05:44;;;;;;;0.10;0.10;;;8.90;99.90;;;;;;5045008;28;20030;-76
2023/11/16 06:08:09;;;;;;;0.10;0.10;;;8.70;99.90;;;;;;5040709;28;20059;-77
2023/11/16 06:10:35;;;;;;;0.10;0.10;;;8.60;99.90;;;;;;5044388;28;20493;-76
2023/11/16 06:13:01;;;;;;;0.10;0.10;;;8.70;99.90;;;;;;5047427;28;20051;-77
2023/11/16 06:15:30;;;;;;;0.10;0.10;;;8.70;99.90;;;;;;5049053;28;20491;-75
2023/11/16 06:17:58;;;;;;;0.03;0.03;;;8.70;99.90;;;;;;5048282;28;20035;-75
2023/11/16 06:20:23;;;;;;;0.10;0.10;;;8.60;99.90;;;;;;5041025;28;20787;-75
2023/11/16 06:22:50;;;;;;;0.10;0.10;;;8.60;99.90;;;;;;5046799;28;21748;-75
2023/11/16 06:25:16;;;;;;;;;;;8.70;99.90;;;;;;5047453;28;20155;-75
2023/11/16 06:27:42;;;;;;;0.10;0.10;;;8.60;99.90;;;;;;5038018;28;20004;-74
2023/11/16 06:30:08;;;;;;;0.10;0.10;;;8.60;99.90;;;;;;5043962;28;20275;-75
2023/11/16 06:32:36;;;;;;;0.10;0.10;;;8.60;99.90;;;;;;5046523;28;20029;-75
2023/11/16 06:35:03;;;;;;;0.08;0.08;;;8.70;99.90;;;;;;5047544;28;20021;-76
2023/11/16 06:37:29;;;;;;;0.10;0.10;;;8.60;99.90;;;;;;5042888;28;20033;-75
2023/11/16 06:39:55;;;;;;;0.10;0.10;;;8.60;99.90;;;;;;5051631;28;20056;-75
2023/11/16 06:42:20;;;;;;;0.10;0.10;;;8.50;99.90;;;;;;5046884;28;20319;-75
2023/11/16 06:44:48;;;;;;;0.00;0.00;;;8.40;99.90;;;;;;5049716;28;20122;-76
2023/11/16 06:47:17;;;;;;;0.10;0.10;;;8.50;99.90;;;;;;5037967;28;20040;-76
2023/11/16 06:49:45;;;;;;;0.00;0.00;;;8.40;99.90;;;;;;5048182;28;20589;-75
2023/11/16 06:52:14;;;;;;;0.10;0.10;;;8.40;99.90;;;;;;5047847;28;20598;-76
2023/11/16 06:54:41;;;;;;;0.10;0.10;;;8.50;99.90;;;;;;5048237;28;20037;-76
2023/11/16 06:57:08;;;;;;;0.10;0.10;;;8.50;99.90;;;;;;5041985;28;20025;-76
2023/11/16 06:59:34;;;;;;;0.10;0.10;;;8.40;99.90;;;;;;5039190;28;20033;-76
2023/11/16 07:02:00;;;;;;;0.10;0.10;;;8.40;99.90;;;;;;5040654;28;20040;-76
2023/11/16 07:04:26;;;;;;;0.10;0.10;;;8.50;99.90;;;;;;5044557;28;20037;-75
2023/11/16 07:06:56;;;;;;;2.30;2.20;;;8.40;99.90;;;;;;5046078;28;20029;-75
2023/11/16 07:09:23;;;;;;;0.10;0.10;;;8.60;99.90;;;;;;5043981;28;20090;-75
2023/11/16 07:11:53;;;;;;;0.10;0.10;;;8.50;99.90;;;;;;5043023;28;20061;-75
2023/11/16 07:14:19;;;;;;;0.10;0.10;;;8.40;99.90;;;;;;5039958;28;20663;-75
2023/11/16 07:16:45;;;;;;;0.00;0.00;;;8.40;99.90;;;;;;5047882;28;20016;-75
2023/11/16 07:19:14;;;;;;;0.10;0.10;;;8.60;99.90;;;;;;5033874;28;20897;-75
2023/11/16 07:21:41;;;;;;;0.00;0.00;;;8.70;99.90;;;;;;5037141;28;20464;-74
2023/11/16 07:24:07;;;;;;;0.10;0.10;;;8.60;99.90;;;;;;5036626;28;20036;-74
2023/11/16 07:26:33;;;;;;;0.10;0.10;;;8.70;99.90;;;;;;5038422;28;20083;-75
2023/11/16 07:28:59;;;;;;;0.10;0.10;;;8.80;99.90;;;;;;5033095;28;20033;-74
2023/11/16 07:31:27;;;;;;;0.03;0.03;;;8.70;99.90;;;;;;5030094;28;20114;-75
2023/11/16 07:33:53;;;;;;;0.10;0.10;;;8.70;99.90;;;;;;5043644;28;20620;-75
2023/11/16 07:36:26;;;;;;;0.10;0.10;;;8.60;99.90;;;;;;5037642;28;20828;-74
2023/11/16 07:38:56;;;;;;;0.10;0.10;;;8.80;99.90;;;;;;5037404;28;20032;-75
2023/11/16 07:41:22;;;;;;;0.10;0.10;;;8.70;99.90;;;;;;5036277;28;20053;-75
2023/11/16 07:43:48;;;;;;;0.00;0.00;;;8.90;99.90;;;;;;5047464;28;20036;-75
2023/11/16 07:46:14;;;;;;;0.10;0.10;;;8.80;99.90;;;;;;5040696;28;20036;-75
2023/11/16 07:48:43;;;;;;;0.08;0.08;;;8.90;99.90;;;;;;5047477;28;20021;-75
2023/11/16 07:51:09;;;;;;;0.10;0.10;;;9.00;99.90;;;;;;5035310;28;20095;-75
2023/11/16 07:53:36;;;;;;;0.10;0.10;;;9.20;99.90;;;;;;5045975;28;20555;-75
2023/11/16 07:56:05;;;;;;;0.00;0.00;;;9.10;99.90;;;;;;5040986;28;20058;-75
2023/11/16 07:58:39;;;;;;;0.00;0.00;;;9.00;99.90;;;;;;5042668;28;20025;-75
2023/11/16 08:01:11;;;;;;;0.10;0.10;;;9.30;99.90;;;;;;5041662;28;20038;-75
2023/11/16 08:03:44;;;;;;;0.00;0.00;;;9.40;99.90;;;;;;5046855;28;20025;-75
2023/11/16 08:06:14;;;;;;;0.10;0.10;;;9.50;99.90;;;;;;5043934;28;20543;-75
2023/11/16 08:08:45;;;;;;;0.10;0.10;;;9.40;99.90;;;;;;5047044;28;20037;-75
2023/11/16 08:11:12;;;;;;;0.03;0.03;;;9.50;99.90;;;;;;5048599;28;20037;-75
2023/11/16 08:13:42;;;;;;;0.00;0.00;;;9.50;99.90;;;;;;5044587;28;20032;-74
2023/11/16 08:16:09;;;;;;;0.00;0.00;;;9.50;99.90;;;;;;5045562;28;20044;-74
2023/11/16 08:18:37;;;;;;;0.10;0.10;;;9.60;99.90;;;;;;5046665;28;20048;-75
2023/11/16 08:21:06;;;;;;;0.10;0.10;;;9.60;99.90;;;;;;5045985;28;20124;-75
2023/11/16 08:23:41;;;;;;;0.10;0.10;;;9.60;99.90;;;;;;5045271;28;20739;-75
2023/11/16 08:26:11;;;;;;;0.10;0.10;;;9.70;99.90;;;;;;5045819;28;20052;-75
2023/11/16 08:28:38;;;;;;;0.00;0.00;;;9.60;99.90;;;;;;5050278;28;20031;-74
2023/11/16 08:31:05;;;;;;;0.10;0.10;;;9.60;99.90;;;;;;5046189;28;20124;-75
2023/11/16 08:33:32;;;;;;;0.10;0.10;;;9.70;99.90;;;;;;5050795;28;20028;-74
2023/11/16 08:35:58;;;;;;;0.10;0.10;;;9.70;99.90;;;;;;5054053;28;20396;-75
2023/11/16 08:38:25;;;;;;;0.10;0.10;;;9.60;99.90;;;;;;5045084;28;20484;-75
2023/11/16 08:40:58;;;;;;;0.10;0.10;;;9.70;99.90;;;;;;5045319;28;20041;-75
2023/11/16 08:43:27;;;;;;;0.10;0.10;;;9.60;99.90;;;;;;5050943;28;20048;-75
2023/11/16 08:45:56;;;;;;;0.10;0.10;;;9.70;99.90;;;;;;5045912;28;20029;-75
2023/11/16 08:48:32;;;;;;;0.10;0.10;;;9.80;99.90;;;;;;5045221;28;20036;-75
2023/11/16 08:51:00;;;;;;;0.00;0.00;;;9.70;99.90;;;;;;5038437;28;20036;-75
2023/11/16 08:53:32;;;;;;;0.05;0.05;;;10.00;99.90;;;;;;5044765;28;20120;-75
2023/11/16 08:56:04;;;;;;;0.00;0.00;;;10.00;99.90;;;;;;5040020;28;20021;-75
2023/11/16 08:58:37;;;;;;;0.10;0.10;;;10.00;99.90;;;;;;5024022;28;20026;-75
2023/11/16 09:01:03;;;;;;;0.10;0.10;;;10.00;99.90;;;;;;5050887;28;20078;-74
2023/11/16 09:03:33;;;;;;;0.10;0.10;;;9.90;99.90;;;;;;5056756;28;20843;-75
2023/11/16 09:06:06;;;;;;;0.10;0.10;;;9.90;99.90;;;;;;5050428;28;20052;-75
2023/11/16 09:08:37;;;;;;;0.10;0.10;;;9.90;99.90;;;;;;5054997;28;20036;-74
2023/11/16 09:11:05;;;;;;;0.10;0.10;;;10.00;99.90;;;;;;5047551;28;20096;-75
2023/11/16 09:13:32;;;;;;;0.00;0.00;;;10.50;99.90;;;;;;5048532;28;20031;-75
2023/11/16 09:15:57;;;;;;;0.00;0.00;;;10.40;99.90;;;;;;5054683;28;20112;-75
2023/11/16 09:18:25;;;;;;;0.00;0.00;;;10.40;99.90;;;;;;5049557;28;20104;-75
2023/11/16 09:20:51;;;;;;;0.10;0.10;;;10.40;99.90;;;;;;5054230;28;20028;-75
2023/11/16 09:23:17;;;;;;;0.10;0.10;;;10.50;99.90;;;;;;5052515;28;20025;-75
2023/11/16 09:25:43;;;;;;;0.00;0.00;;;10.60;99.90;;;;;;5048328;28;20579;-75
2023/11/16 09:28:11;;;;;;;0.10;0.10;;;10.60;99.90;;;;;;5050128;28;20049;-75
2023/11/16 09:30:43;;;;;;;0.10;0.10;;;10.50;99.90;;;;;;5048119;28;20029;-75
2023/11/16 09:33:12;;;;;;;0.00;0.00;;;10.40;99.90;;;;;;5049408;28;20063;-75
2023/11/16 09:35:40;;;;;;;0.00;0.00;;;10.40;99.90;;;;;;5052051;28;20025;-75
2023/11/16 09:38:09;;;;;;;0.00;0.00;;;10.40;99.90;;;;;;5049626;28;20625;-75
2023/11/16 09:40:36;;;;;;;0.00;0.00;;;10.50;99.90;;;;;;5052293;28;20041;-75
2023/11/16 09:43:18;;;;;;;;;;;10.50;99.90;;;;;;5053300;28;20059;-75
2023/11/16 09:45:47;;;;;;;0.10;0.10;;;10.50;99.90;;;;;;5052323;28;20003;-75
2023/11/16 09:48:13;;;;;;;0.03;0.03;;;10.60;99.90;;;;;;5050878;28;20036;-75
2023/11/16 09:50:48;;;;;;;0.00;0.00;;;10.60;99.90;;;;;;5048268;28;20049;-75
2023/11/16 09:53:22;;;;;;;0.10;0.10;;;10.70;99.90;;;;;;5051778;28;20025;-75
2023/11/16 09:56:03;;;;;;;0.05;0.05;;;10.70;99.90;;;;;;5048327;28;20032;-75
2023/11/16 09:58:36;;;;;;;0.10;0.10;;;10.70;99.90;;;;;;5047988;28;20160;-75
2023/11/16 10:01:05;;;;;;;0.10;0.10;;;10.80;99.90;;;;;;5050892;28;20033;-75
2023/11/16 10:03:33;;;;;;;0.28;0.28;;;10.90;99.90;;;;;;5048832;28;20028;-75
2023/11/16 10:05:59;;;;;;;0.10;0.10;;;11.00;99.90;;;;;;5052217;28;20029;-75
2023/11/16 10:08:28;;;;;;;0.13;0.13;;;11.20;99.90;;;;;;5048812;28;20813;-75
2023/11/16 10:11:00;;;;;;;0.00;0.00;;;11.20;99.90;;;;;;5052577;28;20427;-75
2023/11/16 10:13:27;;;;;;;0.10;0.10;;;11.20;99.90;;;;;;5050761;28;20023;-75
2023/11/16 10:15:53;;;;;;;;;;;11.30;99.90;;;;;;5047876;28;20045;-75
2023/11/16 10:18:24;;;;;;;0.10;0.10;;;11.40;99.90;;;;;;5049032;28;20648;-75
2023/11/16 10:20:50;;;;;;;0.00;0.00;;;11.40;99.90;;;;;;5052648;28;20136;-75
2023/11/16 10:23:18;;;;;;;0.10;0.10;;;11.60;99.90;;;;;;5048960;28;20107;-75
2023/11/16 10:25:48;;;;;;;0.10;0.10;;;11.50;99.90;;;;;;5047792;28;20056;-76
2023/11/16 10:28:21;;;;;;;0.00;0.00;;;11.40;99.90;;;;;;5056772;28;20081;-76
2023/11/16 10:30:50;;;;;;;0.10;0.10;;;11.50;99.90;;;;;;5050153;28;20403;-75
2023/11/16 10:33:17;;;;;;;0.00;0.00;;;11.50;99.90;;;;;;5054616;28;20032;-75
2023/11/16 10:35:47;;;;;;;0.10;0.10;;;11.70;99.90;;;;;;5047252;28;20055;-75
2023/11/16 10:38:15;;;;;;;0.50;0.50;;;12.00;99.90;;;;;;5046220;28;20179;-75
2023/11/16 10:40:49;;;;;;;0.10;0.10;;;12.00;99.90;;;;;;5050020;28;20032;-75
2023/11/16 10:43:22;;;;;;;0.10;0.10;;;12.20;99.90;;;;;;5052016;28;20159;-76
2023/11/16 10:45:51;;;;;;;0.00;0.00;;;12.30;99.90;;;;;;5050448;28;20025;-75
2023/11/16 10:48:18;;;;;;;0.00;0.00;;;12.50;99.90;;;;;;5051864;28;20032;-75
2023/11/16 10:50:44;;;;;;;0.10;0.10;;;12.80;99.90;;;;;;5049859;28;20025;-76
2023/11/16 10:53:22;;;;;;;0.00;0.00;;;13.00;99.90;;;;;;5048682;28;20036;-76
2023/11/16 10:55:49;;;;;;;0.10;0.10;;;13.40;99.90;;;;;;5052165;28;20025;-76
2023/11/16 10:58:20;;;;;;;0.00;0.00;;;13.30;99.90;;;;;;5056380;28;20108;-75
2023/11/16 11:00:51;;;;;;;0.10;0.10;;;13.60;99.90;;;;;;5048894;28;20057;-76
2023/11/16 11:03:19;;;;;;;0.00;0.00;;;13.80;99.90;;;;;;5052431;28;20029;-75
2023/11/16 11:05:49;;;;;;;3.33;2.40;;;13.60;99.90;;;;;;5047924;28;20060;-76
2023/11/16 11:08:17;;;;;;;0.00;0.00;;;13.70;99.90;;;;;;5047206;28;20027;-75
2023/11/16 11:10:47;;;;;;;0.10;0.10;;;13.70;99.90;;;;;;5051834;28;20116;-76
2023/11/16 11:13:16;;;;;;;0.10;0.10;;;13.90;99.90;;;;;;5043035;28;20064;-75
2023/11/16 11:15:46;;;;;;;0.00;0.00;;;13.70;99.90;;;;;;5043980;28;20857;-76
2023/11/16 11:18:26;;;;;;;0.03;0.03;;;13.90;99.90;;;;;;5050188;28;20025;-76
2023/11/16 11:20:53;;;;;;;0.00;0.00;;;14.10;99.90;;;;;;5046263;28;20021;-76
2023/11/16 11:23:19;;;;;;;0.00;0.00;;;13.90;99.90;;;;;;5046769;28;20206;-76
2023/11/16 11:25:48;;;;;;;0.00;0.00;;;13.80;99.90;;;;;;5052316;28;20550;-75
2023/11/16 11:28:15;;;;;;;0.00;0.00;;;13.90;99.90;;;;;;5045543;28;20559;-76
2023/11/16 11:30:57;;;;;;;0.10;0.10;;;14.00;99.90;;;;;;5047506;28;20021;-76
2023/11/16 11:33:41;;;;;;;0.00;0.00;;;13.80;99.90;;;;;;5047582;28;20025;-76
2023/11/16 11:36:09;;;;;;;0.00;0.00;;;13.90;99.90;;;;;;5042845;28;20032;-76
2023/11/16 11:38:42;;;;;;;0.00;0.00;;;14.10;99.90;;;;;;5040715;28;20024;-76
2023/11/16 11:41:08;;;;;;;0.47;0.47;;;14.20;99.90;;;;;;5047695;28;20033;-76
2023/11/16 11:43:39;;;;;;;0.10;0.10;;;14.10;99.90;;;;;;5057452;28;20024;-76
2023/11/16 11:46:09;;;;;;;0.00;0.00;;;14.30;99.90;;;;;;5048102;28;20037;-77
2023/11/16 11:48:40;;;;;;;0.00;0.00;;;14.30;99.90;;;;;;5046650;28;20052;-76
2023/11/16 11:51:08;;;;;;;0.00;0.00;;;14.30;99.90;;;;;;5042770;28;20031;-76
2023/11/16 11:53:34;;;;;;;0.00;0.00;;;14.10;99.90;;;;;;5051429;28;20048;-76
2023/11/16 11:56:06;;;;;;;0.00;0.00;;;14.30;99.90;;;;;;5046120;28;20017;-76
2023/11/16 11:58:35;;;;;;;0.00;0.00;;;14.30;99.90;;;;;;5043822;28;20075;-77
2023/11/16 12:01:01;;;;;;;0.00;0.00;;;14.20;99.90;;;;;;5047523;28;20016;-75
2023/11/16 12:03:27;;;;;;;0.00;0.00;;;14.40;99.90;;;;;;5050677;28;20025;-76
2023/11/16 12:06:02;;;;;;;0.00;0.00;;;14.40;99.90;;;;;;5049616;28;20021;-76
2023/11/16 12:08:40;;;;;;;0.00;0.00;;;14.40;99.90;;;;;;5047056;28;20432;-75
2023/11/16 12:11:09;;;;;;;0.00;0.00;;;14.10;99.90;;;;;;5044780;28;20118;-75
2023/11/16 12:13:36;;;;;;;0.00;0.00;;;14.20;99.90;;;;;;5050470;28;20527;-76
2023/11/16 12:16:06;;;;;;;0.80;0.80;;;14.50;99.90;;;;;;5052362;28;20025;-76
2023/11/16 12:18:35;;;;;;;0.00;0.00;;;14.40;99.90;;;;;;5046600;28;20654;-76
2023/11/16 12:21:05;;;;;;;0.00;0.00;;;14.30;99.90;;;;;;5052400;28;20127;-76
2023/11/16 12:23:30;;;;;;;0.63;0.63;;;14.30;99.90;;;;;;5052582;28;20087;-76
2023/11/16 12:26:00;;;;;;;0.00;0.00;;;14.50;99.90;;;;;;5053084;28;20547;-75
2023/11/16 12:28:26;;;;;;;0.00;0.00;;;14.70;99.90;;;;;;5043974;28;20036;-76
2023/11/16 12:30:52;;;;;;;0.40;0.40;;;14.60;99.90;;;;;;5053278;28;20024;-76
2023/11/16 12:33:18;;;;;;;0.00;0.00;;;14.80;99.90;;;;;;5046952;28;20033;-76
2023/11/16 12:35:43;;;;;;;0.00;0.00;;;15.00;99.90;;;;;;5050951;28;20033;-76
2023/11/16 12:38:10;;;;;;;0.00;0.00;;;14.70;99.90;;;;;;5057505;28;20025;-76
2023/11/16 12:40:36;;;;;;;0.00;0.00;;;14.70;99.90;;;;;;5051721;28;20021;-76
2023/11/16 12:43:03;;;;;;;0.00;0.00;;;14.60;99.90;;;;;;5050452;28;20056;-76
2023/11/16 12:45:31;;;;;;;0.00;0.00;;;14.70;99.90;;;;;;5050166;28;20028;-76
2023/11/16 12:48:01;;;;;;;0.00;0.00;;;14.90;99.90;;;;;;5056498;28;20067;-76
2023/11/16 12:50:27;;;;;;;0.00;0.00;;;14.80;99.90;;;;;;5053756;28;20041;-77
2023/11/16 12:52:53;;;;;;;0.00;0.00;;;14.60;99.90;;;;;;5051052;28;20032;-76
2023/11/16 12:55:19;;;;;;;0.00;0.00;;;14.60;99.90;;;;;;5050737;28;20135;-76
2023/11/16 12:57:48;;;;;;;0.00;0.00;;;14.70;99.90;;;;;;5051023;28;20154;-77